createdAt,value
2023-02-11T00:01:42.942Z,51.75
2023-02-11T00:04:12.154Z,54.40
2023-02-11T00:06:40.247Z,59.35
2023-02-11T00:09:08.494Z,56.83
2023-02-11T00:11:36.456Z,49.80
2023-02-11T00:14:07.945Z,62.00
2023-02-11T00:16:36.084Z,56.33
2023-02-11T00:19:06.090Z,51.67
2023-02-11T00:21:36.122Z,52.75
2023-02-11T00:24:04.238Z,57.85
2023-02-11T00:26:34.252Z,55.47
2023-02-11T00:29:03.102Z,51.22
2023-02-11T00:31:32.839Z,52.72
2023-02-11T00:34:00.798Z,49.50
2023-02-11T00:36:30.667Z,43.50
2023-02-11T00:39:00.793Z,52.13
2023-02-11T00:41:29.294Z,54.60
2023-02-11T00:43:57.376Z,54.35
2023-02-11T00:46:25.329Z,46.80
2023-02-11T00:48:55.066Z,55.55
2023-02-11T00:51:23.049Z,55.47
2023-02-11T00:53:51.471Z,48.53
2023-02-11T00:56:21.169Z,56.75
2023-02-11T00:58:49.136Z,58.95
2023-02-11T01:01:18.518Z,55.72
2023-02-11T01:03:46.410Z,49.83
2023-02-11T01:06:14.355Z,51.55
2023-02-11T01:08:42.408Z,52.42
2023-02-11T01:11:15.105Z,49.15
2023-02-11T01:13:47.976Z,55.83
2023-02-11T01:16:17.727Z,54.33
2023-02-11T01:18:47.045Z,51.33
2023-02-11T01:21:15.005Z,51.75
2023-02-11T01:23:44.323Z,54.67
2023-02-11T01:26:12.992Z,49.30
2023-02-11T01:28:41.002Z,54.58
2023-02-11T01:31:10.313Z,47.25
2023-02-11T01:33:38.245Z,50.78
2023-02-11T01:36:08.767Z,45.42
2023-02-11T01:38:37.093Z,52.95
2023-02-11T01:41:07.512Z,46.67
2023-02-11T01:43:39.035Z,45.78
2023-02-11T01:46:24.587Z,53.13
2023-02-11T01:48:56.733Z,51.42
2023-02-11T01:51:28.664Z,47.45
2023-02-11T01:54:15.710Z,47.80
2023-02-11T01:57:04.720Z,55.28
2023-02-11T01:59:38.721Z,46.45
2023-02-11T02:02:13.010Z,51.03
2023-02-11T02:04:46.287Z,52.90
2023-02-11T02:07:38.553Z,49.88
2023-02-11T02:10:12.422Z,49.53
2023-02-11T02:12:40.348Z,54.78
2023-02-11T02:15:23.445Z,48.05
2023-02-11T02:17:59.896Z,52.28
2023-02-11T02:20:53.748Z,55.25
2023-02-11T02:26:39.293Z,54.28
2023-02-11T02:29:29.215Z,58.15
2023-02-11T02:32:27.164Z,47.13
2023-02-11T02:35:02.784Z,47.55
2023-02-11T02:37:35.987Z,55.65
2023-02-11T02:42:34.417Z,49.15
2023-02-11T02:45:02.373Z,54.97
2023-02-11T02:47:31.696Z,57.30
2023-02-11T02:49:59.586Z,51.92
2023-02-11T02:52:37.455Z,48.65
2023-02-11T02:55:21.692Z,45.22
2023-02-11T02:58:07.311Z,46.33
2023-02-11T03:00:44.283Z,53.90
2023-02-11T03:03:28.146Z,55.78
2023-02-11T03:06:01.981Z,55.40
2023-02-11T03:08:35.613Z,54.55
2023-02-11T03:11:05.688Z,55.13
2023-02-11T03:13:36.930Z,60.13
2023-02-11T03:16:10.874Z,52.75
2023-02-11T03:18:43.392Z,53.08
2023-02-11T03:21:12.597Z,60.23
2023-02-11T03:23:45.451Z,57.80
2023-02-11T03:26:19.829Z,55.20
2023-02-11T03:28:55.052Z,59.85
2023-02-11T03:31:29.663Z,59.00
2023-02-11T03:34:03.842Z,55.83
2023-02-11T03:36:38.595Z,50.85
2023-02-11T03:39:08.345Z,56.38
2023-02-11T03:41:37.624Z,63.88
2023-02-11T03:44:07.382Z,54.95
2023-02-11T03:46:40.137Z,56.95
2023-02-11T03:49:12.175Z,61.97
2023-02-11T03:51:41.365Z,56.55
2023-02-11T03:54:13.507Z,62.63
2023-02-11T03:56:48.142Z,55.22
2023-02-11T03:59:16.037Z,57.60
2023-02-11T04:01:43.981Z,55.60
2023-02-11T04:04:13.248Z,61.42
2023-02-11T04:06:41.178Z,53.75
2023-02-11T04:09:09.061Z,55.45
2023-02-11T04:11:36.897Z,58.08
2023-02-11T04:14:05.074Z,57.42
2023-02-11T04:16:33.128Z,60.00
2023-02-11T04:19:01.622Z,61.10
2023-02-11T04:21:30.825Z,57.70
2023-02-11T04:23:58.666Z,61.47
2023-02-11T04:26:26.568Z,61.60
2023-02-11T04:28:54.475Z,56.38
2023-02-11T04:31:22.441Z,65.32
2023-02-11T04:33:50.350Z,63.25
2023-02-11T04:36:18.202Z,58.67
2023-02-11T04:38:47.402Z,66.88
2023-02-11T04:41:15.525Z,59.97
2023-02-11T04:43:43.412Z,61.90
2023-02-11T04:46:11.378Z,64.97
2023-02-11T04:48:39.352Z,60.10
2023-02-11T04:51:07.599Z,64.60
2023-02-11T04:53:35.489Z,60.85
2023-02-11T04:56:05.057Z,63.90
2023-02-11T04:58:33.091Z,60.22
2023-02-11T05:01:07.065Z,59.30
2023-02-11T05:03:35.362Z,61.33
2023-02-11T05:06:03.844Z,69.88
2023-02-11T05:08:31.781Z,66.00
2023-02-11T05:11:02.115Z,58.92
2023-02-11T05:13:32.025Z,71.80
2023-02-11T05:15:59.898Z,63.63
2023-02-11T05:18:27.766Z,63.05
2023-02-11T05:20:55.773Z,68.38
2023-02-11T05:23:23.633Z,69.75
2023-02-11T05:25:51.723Z,68.20
2023-02-11T05:28:19.893Z,72.70
2023-02-11T05:30:49.192Z,62.60
2023-02-11T05:33:17.130Z,69.47
2023-02-11T05:35:45.054Z,72.07
2023-02-11T05:38:13.086Z,69.65
2023-02-11T05:40:40.937Z,70.50
2023-02-11T05:43:08.864Z,70.88
2023-02-11T05:45:36.751Z,66.50
2023-02-11T05:48:06.413Z,68.25
2023-02-11T05:50:34.362Z,68.63
2023-02-11T05:53:02.272Z,78.00
2023-02-11T05:55:30.306Z,68.70
2023-02-11T05:57:58.628Z,70.47
2023-02-11T06:00:27.083Z,72.45
2023-02-11T06:02:55.225Z,72.68
2023-02-11T06:05:24.516Z,71.22
2023-02-11T06:07:52.398Z,73.63
2023-02-11T06:10:20.304Z,71.47
2023-02-11T06:12:48.319Z,67.72
2023-02-11T06:15:16.177Z,73.63
2023-02-11T06:17:44.019Z,75.47
2023-02-11T06:20:12.948Z,77.18
2023-02-11T06:22:42.329Z,81.65
2023-02-11T06:25:10.982Z,73.95
2023-02-11T06:27:39.420Z,81.05
2023-02-11T06:30:08.750Z,82.00
2023-02-11T06:32:44.428Z,73.45
2023-02-11T06:35:13.858Z,79.97
2023-02-11T06:37:43.883Z,72.78
2023-02-11T06:40:12.489Z,83.38
2023-02-11T06:42:40.641Z,78.93
2023-02-11T06:45:11.021Z,80.72
2023-02-11T06:47:39.230Z,77.68
2023-02-11T06:50:09.553Z,74.10
2023-02-11T06:52:37.475Z,82.53
2023-02-11T06:55:07.479Z,83.57
2023-02-11T06:57:35.463Z,79.90
2023-02-11T07:00:03.732Z,82.18
2023-02-11T07:02:32.211Z,82.47
2023-02-11T07:05:00.154Z,87.55
2023-02-11T07:07:29.078Z,80.07
2023-02-11T07:09:56.996Z,77.85
2023-02-11T07:12:26.348Z,72.80
2023-02-11T07:14:54.273Z,80.63
2023-02-11T07:17:22.234Z,80.88
2023-02-11T07:19:50.234Z,83.85
2023-02-11T07:22:18.196Z,87.55
2023-02-11T07:24:46.396Z,82.38
2023-02-11T07:27:14.476Z,81.97
2023-02-11T07:29:45.976Z,78.20
2023-02-11T07:32:14.475Z,75.63
2023-02-11T07:34:42.549Z,79.45
2023-02-11T07:37:10.956Z,79.45
2023-02-11T07:39:38.978Z,82.00
2023-02-11T07:42:07.424Z,72.18
2023-02-11T07:44:37.320Z,82.78
2023-02-11T07:47:06.967Z,76.25
2023-02-11T07:49:34.960Z,74.75
2023-02-11T07:52:02.870Z,71.70
2023-02-11T07:54:30.824Z,76.50
2023-02-11T07:56:58.827Z,81.20
2023-02-11T07:59:27.492Z,70.93
2023-02-11T08:01:55.532Z,71.55
2023-02-11T08:04:24.881Z,68.88
2023-02-11T08:06:56.481Z,81.50
2023-02-11T08:09:25.993Z,76.30
2023-02-11T08:11:53.981Z,69.45
2023-02-11T08:14:21.990Z,71.53
2023-02-11T08:16:50.006Z,74.18
2023-02-11T08:19:18.211Z,70.70
2023-02-11T08:21:47.507Z,72.03
2023-02-11T08:24:15.465Z,77.53
2023-02-11T08:26:44.281Z,79.65
2023-02-11T08:29:14.501Z,74.72
2023-02-11T08:31:44.862Z,77.15
2023-02-11T08:34:14.571Z,78.75
2023-02-11T08:36:44.827Z,79.20
2023-02-11T08:39:20.346Z,68.40
2023-02-11T08:41:49.801Z,77.10
2023-02-11T08:44:17.970Z,86.20
2023-02-11T08:46:46.047Z,73.70
2023-02-11T08:49:15.053Z,81.40
2023-02-11T08:51:43.397Z,74.55
2023-02-11T08:54:11.436Z,72.93
2023-02-11T08:56:41.187Z,76.35
2023-02-11T08:59:10.211Z,72.97
2023-02-11T09:01:38.261Z,79.53
2023-02-11T09:04:06.555Z,73.22
2023-02-11T09:06:34.696Z,74.10
2023-02-11T09:09:02.649Z,71.75
2023-02-11T09:11:33.733Z,70.30
2023-02-11T09:14:04.386Z,69.72
2023-02-11T09:16:34.447Z,66.78
2023-02-11T09:19:04.363Z,63.78
2023-02-11T09:21:32.669Z,63.28
2023-02-11T09:24:00.724Z,64.30
2023-02-11T09:26:31.226Z,65.63
2023-02-11T09:29:00.036Z,70.13
2023-02-11T09:31:31.478Z,66.47
2023-02-11T09:34:13.751Z,60.47
2023-02-11T09:36:43.294Z,61.60
2023-02-11T09:39:14.593Z,66.45
2023-02-11T09:42:00.722Z,60.80
2023-02-11T09:44:31.009Z,63.50
2023-02-11T09:47:03.945Z,58.67
2023-02-11T09:49:40.034Z,67.70
2023-02-11T09:52:13.422Z,63.90
2023-02-11T09:54:50.779Z,64.53
2023-02-11T09:57:28.351Z,68.05
2023-02-11T09:59:57.744Z,60.97
2023-02-11T10:02:36.437Z,65.63
2023-02-11T10:05:18.921Z,69.35
2023-02-11T10:07:52.669Z,42.35
2023-02-11T10:10:36.913Z,65.90
2023-02-11T10:13:26.277Z,66.32
2023-02-11T10:16:05.389Z,65.50
2023-02-11T10:18:47.490Z,60.67
2023-02-11T10:21:27.820Z,64.03
2023-02-11T10:24:01.425Z,62.25
2023-02-11T10:26:32.155Z,61.33
2023-02-11T10:29:03.380Z,63.90
2023-02-11T10:31:38.753Z,62.08
2023-02-11T10:34:12.176Z,64.75
2023-02-11T10:36:42.460Z,62.97
2023-02-11T10:39:15.619Z,62.45
2023-02-11T10:44:23.916Z,58.33
2023-02-11T10:46:52.496Z,59.40
2023-02-11T10:49:43.825Z,64.43
2023-02-11T10:52:19.499Z,58.50
2023-02-11T10:55:06.902Z,59.65
2023-02-11T10:57:37.531Z,60.83
2023-02-11T11:00:24.239Z,60.85
2023-02-11T11:02:59.445Z,52.45
2023-02-11T11:05:32.597Z,56.45
2023-02-11T11:08:03.081Z,59.55
2023-02-11T11:10:37.514Z,57.88
2023-02-11T11:13:05.481Z,62.22
2023-02-11T11:15:33.614Z,63.67
2023-02-11T11:18:21.963Z,59.42
2023-02-11T11:21:01.010Z,54.95
2023-02-11T11:23:30.165Z,54.05
2023-02-11T11:26:07.371Z,59.10
2023-02-11T11:28:40.386Z,57.50
2023-02-11T11:31:16.123Z,56.22
2023-02-11T11:33:45.526Z,50.83
2023-02-11T11:36:17.670Z,58.78
2023-02-11T11:38:50.310Z,52.97
2023-02-11T11:41:22.326Z,49.33
2023-02-11T11:43:58.865Z,47.25
2023-02-11T11:46:29.751Z,46.80
2023-02-11T11:49:16.970Z,48.03
2023-02-11T11:51:57.620Z,49.70
2023-02-11T11:54:29.199Z,50.65
2023-02-11T11:57:03.691Z,50.15
2023-02-11T11:59:32.582Z,48.45
2023-02-11T12:02:18.164Z,53.50
2023-02-11T12:05:02.303Z,49.75
2023-02-11T12:07:51.368Z,44.10
2023-02-11T12:10:33.163Z,43.63
2023-02-11T12:13:14.855Z,48.63
2023-02-11T12:15:55.107Z,38.90
2023-02-11T12:18:38.718Z,41.03
2023-02-11T12:23:57.233Z,43.17
2023-02-11T12:26:32.573Z,36.78
2023-02-11T12:29:10.045Z,40.83
2023-02-11T12:31:53.577Z,52.53
2023-02-11T12:37:20.164Z,39.75
2023-02-11T12:39:52.976Z,45.53
2023-02-11T12:42:52.631Z,43.97
2023-02-11T12:45:31.649Z,37.42
2023-02-11T12:48:14.137Z,33.05
2023-02-11T12:51:00.564Z,36.17
2023-02-11T12:53:47.913Z,34.65
2023-02-11T12:56:24.105Z,35.75
2023-02-11T12:58:57.238Z,33.70
2023-02-11T13:01:30.312Z,35.28
2023-02-11T13:04:05.915Z,35.28
2023-02-11T13:06:38.475Z,36.00
2023-02-11T13:09:13.116Z,32.00
2023-02-11T13:11:51.744Z,28.48
2023-02-11T13:14:28.055Z,33.03
2023-02-11T13:16:59.779Z,31.65
2023-02-11T13:19:33.708Z,35.50
2023-02-11T13:22:12.642Z,34.65
2023-02-11T13:24:45.382Z,35.70
2023-02-11T13:27:26.234Z,36.50
2023-02-11T13:30:28.390Z,29.05
2023-02-11T13:33:21.481Z,35.13
2023-02-11T13:36:11.207Z,35.23
2023-02-11T13:38:39.951Z,31.88
2023-02-11T13:41:21.176Z,33.25
2023-02-11T13:44:02.959Z,33.08
2023-02-11T13:46:53.891Z,30.65
2023-02-11T13:49:25.417Z,27.88
2023-02-11T13:51:55.849Z,26.73
2023-02-11T13:54:29.474Z,33.72
2023-02-11T13:57:33.610Z,31.88
2023-02-11T14:05:48.645Z,30.50
2023-02-11T14:08:40.816Z,33.00
2023-02-11T14:11:31.182Z,27.65
2023-02-11T14:14:18.237Z,27.13
2023-02-11T14:17:22.757Z,32.30
2023-02-11T14:19:56.169Z,30.50
2023-02-11T14:22:28.232Z,27.48
2023-02-11T14:24:58.812Z,25.73
2023-02-11T14:27:31.568Z,28.38
2023-02-11T14:30:11.785Z,24.90
2023-02-11T14:32:51.160Z,25.02
2023-02-11T14:35:31.210Z,29.58
2023-02-11T14:38:07.627Z,22.20
2023-02-11T14:40:42.997Z,26.48
2023-02-11T14:43:14.849Z,24.48
2023-02-11T14:45:45.972Z,24.20
2023-02-11T14:48:17.661Z,25.38
2023-02-11T14:50:52.460Z,21.67
2023-02-11T14:53:25.164Z,23.23
2023-02-11T14:55:54.850Z,23.90
2023-02-11T14:58:24.792Z,25.85
2023-02-11T15:00:55.984Z,22.00
2023-02-11T15:03:36.124Z,20.23
2023-02-11T15:06:08.100Z,23.02
2023-02-11T15:08:38.856Z,22.13
2023-02-11T15:11:13.109Z,21.58
2023-02-11T15:13:47.426Z,23.92
2023-02-11T15:16:19.406Z,21.35
2023-02-11T15:18:51.673Z,18.85
2023-02-11T15:21:26.869Z,20.58
2023-02-11T15:24:03.159Z,22.33
2023-02-11T15:26:31.381Z,24.98
2023-02-11T15:28:59.582Z,20.65
2023-02-11T15:31:29.848Z,20.10
2023-02-11T15:34:08.626Z,19.30
2023-02-11T15:36:39.385Z,24.17
2023-02-11T15:39:32.397Z,19.60
2023-02-11T15:42:18.857Z,19.47
2023-02-11T15:44:52.269Z,18.73
2023-02-11T15:47:23.754Z,20.98
2023-02-11T15:49:51.706Z,23.35
2023-02-11T15:52:26.911Z,20.55
2023-02-11T15:54:57.360Z,18.52
2023-02-11T15:57:25.323Z,18.00
2023-02-11T15:59:55.054Z,18.55
2023-02-11T16:02:30.182Z,19.65
2023-02-11T16:05:00.400Z,21.15
2023-02-11T16:07:51.743Z,17.95
2023-02-11T16:10:25.610Z,20.83
2023-02-11T16:13:05.006Z,20.55
2023-02-11T16:15:45.787Z,23.38
2023-02-11T16:18:37.846Z,19.17
2023-02-11T16:21:14.555Z,17.93
2023-02-11T16:23:50.432Z,18.95
2023-02-11T16:26:25.963Z,20.65
2023-02-11T16:28:54.367Z,18.40
2023-02-11T16:31:22.538Z,18.92
2023-02-11T16:33:50.528Z,17.13
2023-02-11T16:36:18.661Z,16.75
2023-02-11T16:38:49.312Z,14.30
2023-02-11T16:41:17.251Z,16.33
2023-02-11T16:43:45.240Z,13.18
2023-02-11T16:46:16.845Z,15.52
2023-02-11T16:48:45.162Z,15.35
2023-02-11T16:51:13.238Z,15.82
2023-02-11T16:53:41.248Z,14.90
2023-02-11T16:56:16.750Z,15.82
2023-02-11T16:58:45.270Z,15.20
2023-02-11T17:01:14.277Z,15.82
2023-02-11T17:03:43.777Z,16.30
2023-02-11T17:06:12.689Z,22.80
2023-02-11T17:08:41.467Z,18.77
2023-02-11T17:11:09.369Z,16.40
2023-02-11T17:13:39.492Z,15.35
2023-02-11T17:16:13.158Z,17.92
2023-02-11T17:18:41.175Z,19.02
2023-02-11T17:21:09.379Z,17.23
2023-02-11T17:23:37.512Z,16.63
2023-02-11T17:26:06.140Z,22.25
2023-02-11T17:28:34.512Z,16.48
2023-02-11T17:31:08.260Z,14.00
2023-02-11T17:33:36.354Z,19.92
2023-02-11T17:36:06.109Z,13.95
2023-02-11T17:38:34.545Z,16.02
2023-02-11T17:41:03.470Z,11.52
2023-02-11T17:43:31.988Z,15.70
2023-02-11T17:46:00.297Z,12.90
2023-02-11T17:48:29.510Z,13.02
2023-02-11T17:50:57.482Z,12.50
2023-02-11T17:53:25.406Z,12.18
2023-02-11T17:55:53.508Z,14.82
2023-02-11T17:58:21.922Z,14.13
2023-02-11T18:00:49.886Z,16.65
2023-02-11T18:03:17.725Z,13.38
2023-02-11T18:05:47.032Z,14.52
2023-02-11T18:08:14.914Z,9.95
2023-02-11T18:10:43.392Z,12.00
2023-02-11T18:13:11.221Z,12.63
2023-02-11T18:15:39.574Z,12.15
2023-02-11T18:18:07.597Z,12.23
2023-02-11T18:20:35.504Z,14.45
2023-02-11T18:23:05.117Z,15.05
2023-02-11T18:25:33.179Z,12.30
2023-02-11T18:28:01.148Z,13.57
2023-02-11T18:30:29.176Z,12.45
2023-02-11T18:32:57.185Z,13.15
2023-02-11T18:35:25.191Z,15.30
2023-02-11T18:37:53.663Z,17.30
2023-02-11T18:40:23.287Z,12.70
2023-02-11T18:42:51.168Z,15.63
2023-02-11T18:45:19.268Z,12.02
2023-02-11T18:47:47.132Z,13.93
2023-02-11T18:50:16.086Z,12.65
2023-02-11T18:52:43.973Z,10.52
2023-02-11T18:55:12.086Z,11.40
2023-02-11T18:57:42.925Z,12.10
2023-02-11T19:00:12.027Z,11.15
2023-02-11T19:02:39.952Z,11.93
2023-02-11T19:05:08.499Z,15.05
2023-02-11T19:07:36.496Z,10.85
2023-02-11T19:10:05.312Z,11.13
2023-02-11T19:12:33.907Z,12.60
2023-02-11T19:15:03.335Z,11.05
2023-02-11T19:17:31.232Z,11.43
2023-02-11T19:19:59.195Z,11.25
2023-02-11T19:22:27.116Z,10.38
2023-02-11T19:24:54.982Z,12.10
2023-02-11T19:27:22.837Z,13.80
2023-02-11T19:29:50.721Z,12.43
2023-02-11T19:32:20.038Z,12.55
2023-02-11T19:34:47.899Z,12.35
2023-02-11T19:37:16.193Z,10.30
2023-02-11T19:39:44.496Z,14.65
2023-02-11T19:42:13.285Z,12.15
2023-02-11T19:44:41.144Z,12.55
2023-02-11T19:47:10.380Z,11.45
2023-02-11T19:49:39.725Z,13.73
2023-02-11T19:52:07.991Z,17.13
2023-02-11T19:54:35.961Z,12.35
2023-02-11T19:57:03.932Z,15.55
2023-02-11T19:59:32.317Z,16.58
2023-02-11T20:02:01.597Z,12.23
2023-02-11T20:04:32.164Z,12.85
2023-02-11T20:07:01.568Z,15.57
2023-02-11T20:09:31.144Z,13.75
2023-02-11T20:11:59.215Z,13.52
2023-02-11T20:14:28.125Z,13.82
2023-02-11T20:16:56.237Z,15.00
2023-02-11T20:19:24.103Z,16.30
2023-02-11T20:21:53.791Z,14.02
2023-02-11T20:24:24.617Z,14.68
2023-02-11T20:26:55.769Z,15.10
2023-02-11T20:29:31.067Z,12.93
2023-02-11T20:31:59.102Z,13.55
2023-02-11T20:34:27.088Z,13.63
2023-02-11T20:36:55.956Z,13.43
2023-02-11T20:39:26.795Z,13.52
2023-02-11T20:41:55.007Z,12.90
2023-02-11T20:44:23.634Z,12.13
2023-02-11T20:46:54.066Z,11.38
2023-02-11T20:49:24.365Z,11.35
2023-02-11T20:51:53.748Z,12.07
2023-02-11T20:54:22.669Z,18.50
2023-02-11T20:56:53.694Z,16.13
2023-02-11T20:59:21.978Z,13.15
2023-02-11T21:01:53.431Z,15.48
2023-02-11T21:04:24.320Z,17.02
2023-02-11T21:06:54.640Z,11.73
2023-02-11T21:09:24.346Z,12.68
2023-02-11T21:11:54.807Z,14.02
2023-02-11T21:14:24.704Z,23.38
2023-02-11T21:16:53.222Z,12.43
2023-02-11T21:19:21.226Z,11.43
2023-02-11T21:21:49.269Z,15.63
2023-02-11T21:24:17.146Z,16.13
2023-02-11T21:26:45.025Z,23.10
2023-02-11T21:29:14.249Z,14.85
2023-02-11T21:31:42.238Z,12.10
2023-02-11T21:34:11.174Z,13.23
2023-02-11T21:36:39.084Z,14.57
2023-02-11T21:39:06.986Z,15.55
2023-02-11T21:41:34.930Z,12.10
2023-02-11T21:44:02.949Z,12.15
2023-02-11T21:46:32.496Z,11.05
2023-02-11T21:49:01.047Z,15.13
2023-02-11T21:51:29.021Z,11.93
2023-02-11T21:53:58.550Z,15.27
2023-02-11T21:56:28.133Z,19.90
2023-02-11T21:58:57.374Z,17.40
2023-02-11T22:01:27.593Z,19.45
2023-02-11T22:03:57.150Z,15.68
2023-02-11T22:06:27.151Z,19.90
2023-02-11T22:08:55.947Z,13.15
2023-02-11T22:11:24.640Z,22.50
2023-02-11T22:13:55.210Z,15.07
2023-02-11T22:16:23.559Z,17.10
2023-02-11T22:18:51.575Z,19.75
2023-02-11T22:21:23.336Z,18.52
2023-02-11T22:23:52.185Z,16.65
2023-02-11T22:26:22.597Z,16.15
2023-02-11T22:28:51.493Z,18.23
2023-02-11T22:31:21.777Z,20.65
2023-02-11T22:33:49.829Z,21.38
2023-02-11T22:36:21.291Z,20.10
2023-02-11T22:38:49.948Z,14.32
2023-02-11T22:41:18.336Z,17.15
2023-02-11T22:43:47.635Z,18.75
2023-02-11T22:46:18.745Z,21.92
2023-02-11T22:48:47.280Z,17.23
2023-02-11T22:51:17.573Z,18.05
2023-02-11T22:53:51.177Z,16.70
2023-02-11T22:56:19.399Z,16.52
2023-02-11T22:58:48.063Z,19.42
2023-02-11T23:01:16.894Z,21.58
2023-02-11T23:03:45.548Z,20.48
2023-02-11T23:06:13.521Z,22.33
2023-02-11T23:08:42.940Z,16.63
2023-02-11T23:11:14.029Z,20.98
2023-02-11T23:13:42.932Z,24.27
2023-02-11T23:16:13.665Z,18.30
2023-02-11T23:18:43.227Z,21.77
2023-02-11T23:21:13.518Z,23.98
2023-02-11T23:23:41.447Z,20.42
2023-02-11T23:26:12.691Z,16.13
2023-02-11T23:28:41.578Z,18.90
2023-02-11T23:31:15.267Z,22.63
2023-02-11T23:33:43.188Z,23.15
2023-02-11T23:36:11.483Z,50.67
2023-02-11T23:38:39.434Z,20.58
2023-02-11T23:41:07.372Z,24.90
2023-02-11T23:43:36.782Z,23.65
2023-02-11T23:46:05.197Z,15.07
2023-02-11T23:48:33.768Z,12.32
2023-02-11T23:51:01.738Z,18.75
2023-02-11T23:53:29.611Z,27.75
2023-02-11T23:55:57.622Z,19.05
2023-02-11T23:58:25.565Z,24.67
